Sekiei Maru — JD2960 — position and weather

sailwx.info

Track history (hours):
 
Tides and Currents Weather Stations Pressure Air Temp Water Temp Dewpoint Dewpoint Depression Visibility Wind Speed Wind Dir Waves Ship Positions

Sekiei Maru

Last reported at 2017-Oct-03 07:22 UTC. Time now 2017-Oct-17 04:15 UTC.
Position N 34°37' E 135°01'.
Warning: this ship's position is 13 days out of date.

Length 74 m; draft 4.5 m.

MMSI: 431001021.

Date/timePositionNaut miles runAvg speedWind from/ knotsBaromVisibWave heightAir tempDewpointWater temp
2017-Oct-03 07:22N 34°37' E 135°01'411.2
2017-Oct-03 07:00N 34°36' E 135°06'611.6
2017-Oct-03 06:30N 34°36' E 135°13'612.2
2017-Oct-03 06:00N 34°36' E 135°20'5 9.7
2017-Oct-03 05:30N 34°35' E 135°26'1 0.0
2017-Oct-01 22:18N 34°35' E 135°27'1 0.6
2017-Oct-01 21:06N 34°35' E 135°28'  
2017-Sep-26 01:43N 34°60' E 139°29'2 9.8
2017-Sep-26 01:30N 35°01' E 139°31'510.0
2017-Sep-26 01:01N 35°04' E 139°36'510.4
2017-Sep-26 00:30N 35°07' E 139°41'510.7
2017-Sep-26 00:01N 35°11' E 139°45'510.7
2017-Sep-25 23:31N 35°16' E 139°46'611.2
2017-Sep-25 23:01N 35°21' E 139°42'510.9
2017-Sep-25 22:30N 35°27' E 139°43'2 3.9
2017-Sep-25 22:00N 35°28' E 139°42'0 0.0
2017-Sep-25 21:28N 35°28' E 139°42'0 0.1
2017-Sep-25 20:58N 35°28' E 139°42'0 0.0
2017-Sep-25 20:28N 35°28' E 139°42'0 0.0
2017-Sep-25 19:58N 35°28' E 139°42'0 0.1
2017-Sep-25 19:28N 35°28' E 139°42'0 0.0
2017-Sep-25 18:58N 35°28' E 139°42'0 0.1
2017-Sep-25 18:28N 35°28' E 139°42'0 0.1
2017-Sep-25 17:58N 35°28' E 139°42'0 0.0
2017-Sep-25 17:28N 35°28' E 139°42'0 0.0
2017-Sep-25 16:58N 35°28' E 139°42'0 0.0
2017-Sep-25 16:28N 35°28' E 139°42'0 0.0
2017-Sep-25 15:58N 35°28' E 139°42'0 0.0
2017-Sep-25 15:28N 35°28' E 139°42'0 0.0
2017-Sep-25 14:58N 35°28' E 139°42'0 0.0
2017-Sep-25 14:28N 35°28' E 139°42'0 0.1
2017-Sep-25 13:58N 35°28' E 139°42'0 0.1
2017-Sep-25 13:28N 35°28' E 139°42'0 0.0
2017-Sep-25 12:58N 35°28' E 139°42'0 0.1
2017-Sep-25 12:25N 35°28' E 139°42'0 0.0
2017-Sep-25 11:58N 35°28' E 139°42'0 0.1
2017-Sep-25 11:28N 35°28' E 139°42'0 0.1
2017-Sep-25 10:58N 35°28' E 139°42'0 0.1
2017-Sep-25 10:28N 35°28' E 139°42'0 0.0
2017-Sep-25 09:55N 35°28' E 139°42'0 0.0
2017-Sep-25 09:28N 35°28' E 139°42'0 0.1
2017-Sep-25 08:58N 35°28' E 139°42'0 0.1
2017-Sep-25 08:28N 35°28' E 139°42'0 0.0
2017-Sep-25 07:58N 35°28' E 139°42'0 0.0
2017-Sep-25 07:28N 35°28' E 139°42'0 0.0
2017-Sep-25 06:58N 35°28' E 139°42'0 0.0
2017-Sep-25 06:28N 35°28' E 139°42'0 0.0
2017-Sep-25 05:58N 35°28' E 139°42'0 0.0
2017-Sep-25 05:28N 35°28' E 139°42'0 0.0
2017-Sep-25 04:58N 35°28' E 139°42'0 0.0
2017-Sep-25 04:28N 35°28' E 139°42'0 0.0
2017-Sep-25 03:58N 35°28' E 139°42'0 0.0
2017-Sep-25 03:28N 35°28' E 139°42'0 0.0
2017-Sep-25 02:58N 35°28' E 139°42'0 0.0
2017-Sep-25 02:28N 35°28' E 139°42'0 0.0
2017-Sep-25 01:58N 35°28' E 139°42'0 0.0
2017-Sep-25 01:28N 35°28' E 139°42'0 0.0
2017-Sep-25 00:58N 35°28' E 139°42'0 0.0
2017-Sep-25 00:28N 35°28' E 139°42'0 0.1
2017-Sep-24 23:58N 35°28' E 139°42'0 0.1
2017-Sep-24 23:28N 35°28' E 139°42'0 0.3
2017-Sep-24 22:58N 35°28' E 139°42'1 2.8
2017-Sep-24 22:28N 35°27' E 139°42'0 0.0
2017-Sep-24 21:58N 35°27' E 139°42'0 0.1
2017-Sep-24 21:28N 35°27' E 139°42'0 0.0
2017-Sep-24 20:58N 35°27' E 139°42'0 0.0
2017-Sep-24 20:28N 35°27' E 139°42'0 0.0
2017-Sep-24 19:58N 35°27' E 139°42'0 0.0
2017-Sep-24 19:28N 35°27' E 139°42'0 0.0
2017-Sep-24 18:58N 35°27' E 139°42'0 0.1
2017-Sep-24 18:28N 35°27' E 139°42'0 0.1
2017-Sep-24 17:58N 35°27' E 139°42'0 0.0
2017-Sep-24 17:28N 35°27' E 139°42'0 0.0
2017-Sep-24 16:58N 35°27' E 139°42'0 0.0
2017-Sep-24 16:28N 35°27' E 139°42'0 0.1
2017-Sep-24 15:58N 35°27' E 139°42'0 0.0
2017-Sep-24 15:28N 35°27' E 139°42'0 0.0
2017-Sep-24 14:58N 35°27' E 139°42'0 0.0
2017-Sep-24 14:28N 35°27' E 139°42'0 0.0
2017-Sep-24 13:58N 35°27' E 139°42'0 0.0
2017-Sep-24 13:28N 35°27' E 139°42'0 0.0
2017-Sep-24 12:58N 35°27' E 139°42'0 0.0
2017-Sep-24 12:28N 35°27' E 139°42'0 0.0
2017-Sep-24 11:58N 35°27' E 139°42'0 0.0
2017-Sep-24 11:28N 35°27' E 139°42'0 0.0
2017-Sep-24 10:58N 35°27' E 139°42'0 0.0
2017-Sep-24 10:28N 35°27' E 139°42'0 0.0
2017-Sep-24 09:58N 35°27' E 139°42'0 0.0
2017-Sep-24 09:28N 35°27' E 139°42'0 0.0
2017-Sep-24 08:55N 35°27' E 139°42'0 0.1
2017-Sep-24 08:28N 35°27' E 139°42'0 0.0
2017-Sep-24 07:58N 35°27' E 139°42'0 0.0
2017-Sep-24 07:25N 35°27' E 139°42'0 0.0
2017-Sep-24 06:58N 35°27' E 139°42'0 0.0
2017-Sep-24 06:28N 35°27' E 139°42'0 0.0
2017-Sep-24 05:58N 35°27' E 139°42'0 0.1
2017-Sep-24 05:28N 35°27' E 139°42'0 0.0
2017-Sep-24 04:58N 35°27' E 139°42'0 0.0
2017-Sep-24 04:28N 35°27' E 139°42'0 0.0
2017-Sep-24 03:58N 35°27' E 139°42'0 0.0
2017-Sep-24 03:28N 35°27' E 139°42'0 0.0
2017-Sep-24 02:58N 35°27' E 139°42'0 0.0
2017-Sep-24 02:28N 35°27' E 139°42'0 0.0
2017-Sep-24 01:58N 35°27' E 139°42'0 0.0
2017-Sep-24 01:28N 35°27' E 139°42'0 0.0
2017-Sep-24 00:55N 35°27' E 139°42'0 0.0
2017-Sep-24 00:28N 35°27' E 139°42'0 0.0
2017-Sep-23 23:58N 35°27' E 139°42'0 0.0
2017-Sep-23 23:28N 35°27' E 139°42'0 0.0
2017-Sep-23 22:58N 35°27' E 139°42'0 0.0
2017-Sep-23 22:28N 35°27' E 139°42'0 0.0
2017-Sep-23 21:58N 35°27' E 139°42'0 0.0
2017-Sep-23 21:28N 35°27' E 139°42'0 0.0
2017-Sep-23 20:58N 35°27' E 139°42'0 0.0
2017-Sep-23 20:28N 35°27' E 139°42'0 0.0
2017-Sep-23 19:58N 35°27' E 139°42'  
Track history (hours):
 
Tides and Currents Weather Stations Pressure Air Temp Water Temp Dewpoint Dewpoint Depression Visibility Wind Speed Wind Dir Waves Ship Positions

Sekiei Maru

Last reported at 2017-Oct-03 07:22 UTC. Time now 2017-Oct-17 04:15 UTC.
Position N 34°37' E 135°01'.
Warning: this ship's position is 13 days out of date.

Length 74 m; draft 4.5 m.

MMSI: 431001021.

Date/timePositionNaut miles runAvg speedWind from/ knotsBaromVisibWave heightAir tempDewpointWater temp
2017-Oct-03 07:22N 34°37' E 135°01'411.2
2017-Oct-03 07:00N 34°36' E 135°06'611.6
2017-Oct-03 06:30N 34°36' E 135°13'612.2
2017-Oct-03 06:00N 34°36' E 135°20'5 9.7
2017-Oct-03 05:30N 34°35' E 135°26'1 0.0
2017-Oct-01 22:18N 34°35' E 135°27'1 0.6
2017-Oct-01 21:06N 34°35' E 135°28'  
2017-Sep-26 01:43N 34°60' E 139°29'2 9.8
2017-Sep-26 01:30N 35°01' E 139°31'510.0
2017-Sep-26 01:01N 35°04' E 139°36'510.4
2017-Sep-26 00:30N 35°07' E 139°41'510.7
2017-Sep-26 00:01N 35°11' E 139°45'510.7
2017-Sep-25 23:31N 35°16' E 139°46'611.2
2017-Sep-25 23:01N 35°21' E 139°42'510.9
2017-Sep-25 22:30N 35°27' E 139°43'2 3.9
2017-Sep-25 22:00N 35°28' E 139°42'0 0.0
2017-Sep-25 21:28N 35°28' E 139°42'0 0.1
2017-Sep-25 20:58N 35°28' E 139°42'0 0.0
2017-Sep-25 20:28N 35°28' E 139°42'0 0.0
2017-Sep-25 19:58N 35°28' E 139°42'0 0.1
2017-Sep-25 19:28N 35°28' E 139°42'0 0.0
2017-Sep-25 18:58N 35°28' E 139°42'0 0.1
2017-Sep-25 18:28N 35°28' E 139°42'0 0.1
2017-Sep-25 17:58N 35°28' E 139°42'0 0.0
2017-Sep-25 17:28N 35°28' E 139°42'0 0.0
2017-Sep-25 16:58N 35°28' E 139°42'0 0.0
2017-Sep-25 16:28N 35°28' E 139°42'0 0.0
2017-Sep-25 15:58N 35°28' E 139°42'0 0.0
2017-Sep-25 15:28N 35°28' E 139°42'0 0.0
2017-Sep-25 14:58N 35°28' E 139°42'0 0.0
2017-Sep-25 14:28N 35°28' E 139°42'0 0.1
2017-Sep-25 13:58N 35°28' E 139°42'0 0.1
2017-Sep-25 13:28N 35°28' E 139°42'0 0.0
2017-Sep-25 12:58N 35°28' E 139°42'0 0.1
2017-Sep-25 12:25N 35°28' E 139°42'0 0.0
2017-Sep-25 11:58N 35°28' E 139°42'0 0.1
2017-Sep-25 11:28N 35°28' E 139°42'0 0.1
2017-Sep-25 10:58N 35°28' E 139°42'0 0.1
2017-Sep-25 10:28N 35°28' E 139°42'0 0.0
2017-Sep-25 09:55N 35°28' E 139°42'0 0.0
2017-Sep-25 09:28N 35°28' E 139°42'0 0.1
2017-Sep-25 08:58N 35°28' E 139°42'0 0.1
2017-Sep-25 08:28N 35°28' E 139°42'0 0.0
2017-Sep-25 07:58N 35°28' E 139°42'0 0.0
2017-Sep-25 07:28N 35°28' E 139°42'0 0.0
2017-Sep-25 06:58N 35°28' E 139°42'0 0.0
2017-Sep-25 06:28N 35°28' E 139°42'0 0.0
2017-Sep-25 05:58N 35°28' E 139°42'0 0.0
2017-Sep-25 05:28N 35°28' E 139°42'0 0.0
2017-Sep-25 04:58N 35°28' E 139°42'0 0.0
2017-Sep-25 04:28N 35°28' E 139°42'0 0.0
2017-Sep-25 03:58N 35°28' E 139°42'0 0.0
2017-Sep-25 03:28N 35°28' E 139°42'0 0.0
2017-Sep-25 02:58N 35°28' E 139°42'0 0.0
2017-Sep-25 02:28N 35°28' E 139°42'0 0.0
2017-Sep-25 01:58N 35°28' E 139°42'0 0.0
2017-Sep-25 01:28N 35°28' E 139°42'0 0.0
2017-Sep-25 00:58N 35°28' E 139°42'0 0.0
2017-Sep-25 00:28N 35°28' E 139°42'0 0.1
2017-Sep-24 23:58N 35°28' E 139°42'0 0.1
2017-Sep-24 23:28N 35°28' E 139°42'0 0.3
2017-Sep-24 22:58N 35°28' E 139°42'1 2.8
2017-Sep-24 22:28N 35°27' E 139°42'0 0.0
2017-Sep-24 21:58N 35°27' E 139°42'0 0.1
2017-Sep-24 21:28N 35°27' E 139°42'0 0.0
2017-Sep-24 20:58N 35°27' E 139°42'0 0.0
2017-Sep-24 20:28N 35°27' E 139°42'0 0.0
2017-Sep-24 19:58N 35°27' E 139°42'0 0.0
2017-Sep-24 19:28N 35°27' E 139°42'0 0.0
2017-Sep-24 18:58N 35°27' E 139°42'0 0.1
2017-Sep-24 18:28N 35°27' E 139°42'0 0.1
2017-Sep-24 17:58N 35°27' E 139°42'0 0.0
2017-Sep-24 17:28N 35°27' E 139°42'0 0.0
2017-Sep-24 16:58N 35°27' E 139°42'0 0.0
2017-Sep-24 16:28N 35°27' E 139°42'0 0.1
2017-Sep-24 15:58N 35°27' E 139°42'0 0.0
2017-Sep-24 15:28N 35°27' E 139°42'0 0.0
2017-Sep-24 14:58N 35°27' E 139°42'0 0.0
2017-Sep-24 14:28N 35°27' E 139°42'0 0.0
2017-Sep-24 13:58N 35°27' E 139°42'0 0.0
2017-Sep-24 13:28N 35°27' E 139°42'0 0.0
2017-Sep-24 12:58N 35°27' E 139°42'0 0.0
2017-Sep-24 12:28N 35°27' E 139°42'0 0.0
2017-Sep-24 11:58N 35°27' E 139°42'0 0.0
2017-Sep-24 11:28N 35°27' E 139°42'0 0.0
2017-Sep-24 10:58N 35°27' E 139°42'0 0.0
2017-Sep-24 10:28N 35°27' E 139°42'0 0.0
2017-Sep-24 09:58N 35°27' E 139°42'0 0.0
2017-Sep-24 09:28N 35°27' E 139°42'0 0.0
2017-Sep-24 08:55N 35°27' E 139°42'0 0.1
2017-Sep-24 08:28N 35°27' E 139°42'0 0.0
2017-Sep-24 07:58N 35°27' E 139°42'0 0.0
2017-Sep-24 07:25N 35°27' E 139°42'0 0.0
2017-Sep-24 06:58N 35°27' E 139°42'0 0.0
2017-Sep-24 06:28N 35°27' E 139°42'0 0.0
2017-Sep-24 05:58N 35°27' E 139°42'0 0.1
2017-Sep-24 05:28N 35°27' E 139°42'0 0.0
2017-Sep-24 04:58N 35°27' E 139°42'0 0.0
2017-Sep-24 04:28N 35°27' E 139°42'0 0.0
2017-Sep-24 03:58N 35°27' E 139°42'0 0.0
2017-Sep-24 03:28N 35°27' E 139°42'0 0.0
2017-Sep-24 02:58N 35°27' E 139°42'0 0.0
2017-Sep-24 02:28N 35°27' E 139°42'0 0.0
2017-Sep-24 01:58N 35°27' E 139°42'0 0.0
2017-Sep-24 01:28N 35°27' E 139°42'0 0.0
2017-Sep-24 00:55N 35°27' E 139°42'0 0.0
2017-Sep-24 00:28N 35°27' E 139°42'0 0.0
2017-Sep-23 23:58N 35°27' E 139°42'0 0.0
2017-Sep-23 23:28N 35°27' E 139°42'0 0.0
2017-Sep-23 22:58N 35°27' E 139°42'0 0.0
2017-Sep-23 22:28N 35°27' E 139°42'0 0.0
2017-Sep-23 21:58N 35°27' E 139°42'0 0.0
2017-Sep-23 21:28N 35°27' E 139°42'0 0.0
2017-Sep-23 20:58N 35°27' E 139°42'0 0.0
2017-Sep-23 20:28N 35°27' E 139°42'0 0.0
2017-Sep-23 19:58N 35°27' E 139°42'  

Dump ship's entire track history